Time;durP1;ratioP1;P1;durP2;ratioP2;P2;SDS_P1;SDS_P2;PMS_P1;PMS_P2;Temp;Humidity;BMP_temperature;BMP_pressure;BME280_temperature;BME280_humidity;BME280_pressure;Samples;Min_cycle;Max_cycle;Signal;HPM_P1;HPM_P2
2024/02/15 00:02:21;;;;;;;;;;;;;;;;;;5090511;28;19924;-71
2024/02/15 00:04:48;;;;;;;;;;;;;;;;;;5092327;28;19928;-73
2024/02/15 00:07:15;;;;;;;;;;;;;;;;;;5089590;28;20395;-73
2024/02/15 00:09:42;;;;;;;;;;;;;;;;;;5089777;28;20019;-73
2024/02/15 00:12:09;;;;;;;;;;;;;;;;;;5087672;28;20023;-72
2024/02/15 00:14:38;;;;;;;;;;;;;;;;;;5082760;28;19940;-72
2024/02/15 00:17:05;;;;;;;;;;;;;;;;;;5089519;28;19932;-71
2024/02/15 00:19:32;;;;;;;;;;;;;;;;;;5077115;28;20403;-72
2024/02/15 00:21:59;;;;;;;;;;;;;;;;;;5087110;28;19932;-72
2024/02/15 00:24:27;;;;;;;;;;;;;;;;;;5084566;28;19935;-72
2024/02/15 00:26:54;;;;;;;;;;;;;;;;;;5087086;28;19981;-71
2024/02/15 00:29:21;;;;;;;;;;;;;;;;;;5083945;28;20395;-72
2024/02/15 00:31:48;;;;;;;;;;;;;;;;;;5088127;28;20036;-72
2024/02/15 00:34:16;;;;;;;;;;;;;;;;;;5078881;28;20014;-73
2024/02/15 00:36:43;;;;;;;;;;;;;;;;;;5079008;28;19929;-72
2024/02/15 00:39:11;;;;;;;;;;;;;;;;;;5085172;28;19993;-72
2024/02/15 00:41:41;;;;;;;;;;;;;;;;;;5088995;28;19951;-71
2024/02/15 00:44:08;;;;;;;;;;;;;;;;;;5088601;28;19932;-72
2024/02/15 00:46:36;;;;;;;;;;;;;;;;;;5088567;28;19989;-73
2024/02/15 00:49:03;;;;;;;;;;;;;;;;;;5083659;28;19928;-72
2024/02/15 00:51:30;;;;;;;;;;;;;;;;;;5087847;28;20030;-72
2024/02/15 00:53:57;;;;;;;;;;;;;;;;;;5078093;28;20027;-72
2024/02/15 00:56:24;;;;;;;;;;;;;;;;;;5088110;28;19982;-72
2024/02/15 00:58:51;;;;;;;;;;;;;;;;;;5088528;28;20399;-72
2024/02/15 01:01:18;;;;;;;;;;;;;;;;;;5088879;28;19932;-72
2024/02/15 01:03:45;;;;;;;;;;;;;;;;;;5086652;28;19932;-72
2024/02/15 01:06:13;;;;;;;;;;;;;;;;;;5080201;28;20444;-72
2024/02/15 01:08:40;;;;;;;;;;;;;;;;;;5088257;28;20011;-71
2024/02/15 01:11:07;;;;;;;;;;;;;;;;;;5082020;28;20006;-72
2024/02/15 01:13:34;;;;;;;;;;;;;;;;;;5088579;28;19934;-71
2024/02/15 01:16:03;;;;;;;;;;;;;;;;;;5088952;28;20060;-72
2024/02/15 01:18:31;;;;;;;;;;;;;;;;;;5088688;28;19928;-72
2024/02/15 01:20:58;;;;;;;;;;;;;;;;;;5085289;28;19971;-71
2024/02/15 01:23:25;;;;;;;;;;;;;;;;;;5073196;28;19982;-71
2024/02/15 01:25:52;;;;;;;;;;;;;;;;;;5086362;28;19934;-71
2024/02/15 01:28:19;;;;;;;;;;;;;;;;;;5092059;28;19928;-71
2024/02/15 01:30:46;;;;;;;;;;;;;;;;;;5080552;28;20457;-72
2024/02/15 01:33:13;;;;;;;;;;;;;;;;;;5083713;28;19934;-71
2024/02/15 01:35:40;;;;;;;;;;;;;;;;;;5081873;28;20062;-71
2024/02/15 01:38:07;;;;;;;;;;;;;;;;;;5073340;28;20027;-72
2024/02/15 01:40:35;;;;;;;;;;;;;;;;;;5081319;28;20405;-72
2024/02/15 01:43:02;;;;;;;;;;;;;;;;;;5083629;28;19934;-73
2024/02/15 01:45:29;;;;;;;;;;;;;;;;;;5090028;28;20306;-71
2024/02/15 01:47:56;;;;;;;;;;;;;;;;;;5081128;28;19980;-72
2024/02/15 01:50:23;;;;;;;;;;;;;;;;;;5090847;28;20023;-72
2024/02/15 01:52:50;;;;;;;;;;;;;;;;;;5086525;28;19998;-73
2024/02/15 01:55:18;;;;;;;;;;;;;;;;;;5082266;28;20012;-71
2024/02/15 01:57:45;;;;;;;;;;;;;;;;;;5086827;28;19928;-72
2024/02/15 02:00:12;;;;;;;;;;;;;;;;;;5091583;28;19935;-71
2024/02/15 02:02:39;;;;;;;;;;;;;;;;;;5080671;28;19928;-72
2024/02/15 02:05:06;;;;;;;;;;;;;;;;;;5088423;28;19932;-71
2024/02/15 02:07:33;;;;;;;;;;;;;;;;;;5087351;28;20032;-72
2024/02/15 02:10:00;;;;;;;;;;;;;;;;;;5084736;28;20458;-72
2024/02/15 02:12:28;;;;;;;;;;;;;;;;;;5090569;28;19971;-72
2024/02/15 02:14:55;;;;;;;;;;;;;;;;;;5090690;28;20500;-72
2024/02/15 02:17:22;;;;;;;;;;;;;;;;;;5091710;28;19971;-72
2024/02/15 02:19:49;;;;;;;;;;;;;;;;;;5091458;28;19928;-72
2024/02/15 02:22:17;;;;;;;;;;;;;;;;;;5091624;28;20102;-72
2024/02/15 02:24:45;;;;;;;;;;;;;;;;;;5090703;28;20421;-72
2024/02/15 02:27:12;;;;;;;;;;;;;;;;;;5088576;28;19982;-72
2024/02/15 02:29:39;;;;;;;;;;;;;;;;;;5091156;28;19932;-72
2024/02/15 02:32:07;;;;;;;;;;;;;;;;;;5086947;28;19981;-72
2024/02/15 02:34:35;;;;;;;;;;;;;;;;;;5091183;28;19935;-72
2024/02/15 02:37:05;;;;;;;;;;;;;;;;;;5090135;28;20333;-72
2024/02/15 02:39:32;;;;;;;;;;;;;;;;;;5086722;28;19928;-72
2024/02/15 02:41:59;;;;;;;;;;;;;;;;;;5075287;28;20031;-73
2024/02/15 02:44:26;;;;;;;;;;;;;;;;;;5084465;28;20014;-73
2024/02/15 02:46:53;;;;;;;;;;;;;;;;;;5085985;28;20399;-72
2024/02/15 02:49:20;;;;;;;;;;;;;;;;;;5075119;28;19934;-72
2024/02/15 02:51:47;;;;;;;;;;;;;;;;;;5090214;28;19971;-72
2024/02/15 02:54:15;;;;;;;;;;;;;;;;;;5074495;28;19968;-72
2024/02/15 02:56:43;;;;;;;;;;;;;;;;;;5080064;28;19928;-73
2024/02/15 02:59:10;;;;;;;;;;;;;;;;;;5089840;28;19928;-73
2024/02/15 03:01:39;;;;;;;;;;;;;;;;;;5084738;28;20031;-73
2024/02/15 03:04:06;;;;;;;;;;;;;;;;;;5088609;28;19928;-72
2024/02/15 03:06:33;;;;;;;;;;;;;;;;;;5088138;28;20386;-73
2024/02/15 03:09:00;;;;;;;;;;;;;;;;;;5090301;28;20015;-72
2024/02/15 03:11:27;;;;;;;;;;;;;;;;;;5084720;28;20019;-73
2024/02/15 03:13:54;;;;;;;;;;;;;;;;;;5083230;28;20276;-73
2024/02/15 03:16:21;;;;;;;;;;;;;;;;;;5087428;28;20010;-72
2024/02/15 03:18:48;;;;;;;;;;;;;;;;;;5089931;28;19931;-73
2024/02/15 03:21:15;;;;;;;;;;;;;;;;;;5088155;28;20268;-72
2024/02/15 03:23:42;;;;;;;;;;;;;;;;;;5081930;28;19975;-72
2024/02/15 03:26:11;;;;;;;;;;;;;;;;;;5089467;28;20400;-72
2024/02/15 03:28:37;;;;;;;;;;;;;;;;;;5090255;28;19940;-73
2024/02/15 03:31:05;;;;;;;;;;;;;;;;;;5089660;28;20137;-73
2024/02/15 03:33:34;;;;;;;;;;;;;;;;;;5085210;28;19928;-73
2024/02/15 03:36:01;;;;;;;;;;;;;;;;;;5089933;28;19952;-72
2024/02/15 03:38:29;;;;;;;;;;;;;;;;;;5085145;28;19928;-72
2024/02/15 03:40:56;;;;;;;;;;;;;;;;;;5089898;28;20010;-71
2024/02/15 03:43:24;;;;;;;;;;;;;;;;;;5081107;28;20026;-72
2024/02/15 03:45:50;;;;;;;;;;;;;;;;;;5082374;28;20472;-72
2024/02/15 03:48:17;;;;;;;;;;;;;;;;;;5088400;28;20018;-72
2024/02/15 03:50:45;;;;;;;;;;;;;;;;;;5079774;28;20454;-72
2024/02/15 03:53:12;;;;;;;;;;;;;;;;;;5088211;28;20018;-72
2024/02/15 03:55:39;;;;;;;;;;;;;;;;;;5088173;28;19938;-73
2024/02/15 03:58:07;;;;;;;;;;;;;;;;;;5081569;28;19928;-71
2024/02/15 04:00:34;;;;;;;;;;;;;;;;;;5089412;28;19928;-71
2024/02/15 04:03:01;;;;;;;;;;;;;;;;;;5089508;28;20016;-71
2024/02/15 04:05:29;;;;;;;;;;;;;;;;;;5091546;28;19928;-71
2024/02/15 04:07:56;;;;;;;;;;;;;;;;;;5078165;28;19951;-71
2024/02/15 04:10:23;;;;;;;;;;;;;;;;;;5081876;28;20019;-71
2024/02/15 04:12:50;;;;;;;;;;;;;;;;;;5077058;28;19932;-71
2024/02/15 04:15:18;;;;;;;;;;;;;;;;;;5089377;28;19990;-72
2024/02/15 04:17:45;;;;;;;;;;;;;;;;;;5089735;28;19928;-72
2024/02/15 04:20:15;;;;;;;;;;;;;;;;;;5088490;28;20244;-71
2024/02/15 04:22:44;;;;;;;;;;;;;;;;;;5086629;28;20462;-71
2024/02/15 04:25:16;;;;;;;;;;;;;;;;;;5085099;28;19975;-72
2024/02/15 04:27:43;;;;;;;;;;;;;;;;;;5080560;28;19967;-71
2024/02/15 04:30:10;;;;;;;;;;;;;;;;;;5079319;28;20407;-72
2024/02/15 04:32:37;;;;;;;;;;;;;;;;;;5085949;28;19928;-71
2024/02/15 04:35:05;;;;;;;;;;;;;;;;;;5077664;28;19977;-71
2024/02/15 04:37:34;;;;;;;;;;;;;;;;;;5072759;28;19971;-71
2024/02/15 04:40:07;;;;;;;;;;;;;;;;;;5069447;28;19928;-72
2024/02/15 04:42:35;;;;;;;;;;;;;;;;;;5090084;28;19963;-72
2024/02/15 04:45:03;;;;;;;;;;;;;;;;;;5089409;28;19928;-71
2024/02/15 04:47:30;;;;;;;;;;;;;;;;;;5076606;28;19932;-72
2024/02/15 04:49:58;;;;;;;;;;;;;;;;;;5085458;28;19935;-71
2024/02/15 04:52:25;;;;;;;;;;;;;;;;;;5079944;28;19940;-72
2024/02/15 04:54:53;;;;;;;;;;;;;;;;;;5083847;28;20541;-71
2024/02/15 04:57:20;;;;;;;;;;;;;;;;;;5069551;28;19929;-72
2024/02/15 04:59:48;;;;;;;;;;;;;;;;;;5076587;28;20727;-72
2024/02/15 05:02:15;;;;;;;;;;;;;;;;;;5093011;28;20444;-72
2024/02/15 05:04:42;;;;;;;;;;;;;;;;;;5078692;28;19928;-72
2024/02/15 05:07:09;;;;;;;;;;;;;;;;;;5072743;28;19932;-72
2024/02/15 05:09:36;;;;;;;;;;;;;;;;;;5076536;28;20420;-72
2024/02/15 05:12:04;;;;;;;;;;;;;;;;;;5084901;28;20015;-72
2024/02/15 05:14:31;;;;;;;;;;;;;;;;;;5089599;28;19961;-72
2024/02/15 05:16:59;;;;;;;;;;;;;;;;;;5079346;28;20475;-73
2024/02/15 05:19:26;;;;;;;;;;;;;;;;;;5092879;28;19935;-72
2024/02/15 05:21:54;;;;;;;;;;;;;;;;;;5079029;28;20015;-72
2024/02/15 05:24:22;;;;;;;;;;;;;;;;;;5072459;28;19936;-74
2024/02/15 05:26:50;;;;;;;;;;;;;;;;;;5072868;28;19959;-73
2024/02/15 05:29:17;;;;;;;;;;;;;;;;;;5072785;28;19928;-73
2024/02/15 05:31:44;;;;;;;;;;;;;;;;;;5091024;28;20015;-72
2024/02/15 05:34:12;;;;;;;;;;;;;;;;;;5092366;28;20006;-72
2024/02/15 05:36:39;;;;;;;;;;;;;;;;;;5092568;28;20011;-72
2024/02/15 05:39:07;;;;;;;;;;;;;;;;;;5076612;28;19929;-72
2024/02/15 05:41:34;;;;;;;;;;;;;;;;;;5080804;28;20311;-70
2024/02/15 05:44:01;;;;;;;;;;;;;;;;;;5112691;28;19927;-71
2024/02/15 05:46:28;;;;;;;;;;;;;;;;;;5097774;28;20342;-71
2024/02/15 05:48:55;;;;;;;;;;;;;;;;;;5088693;28;20268;-71
2024/02/15 05:51:22;;;;;;;;;;;;;;;;;;5091744;28;20042;-72
2024/02/15 05:53:50;;;;;;;;;;;;;;;;;;5083152;28;20105;-72
2024/02/15 05:56:17;;;;;;;;;;;;;;;;;;5074702;28;20133;-72
2024/02/15 05:58:44;;;;;;;;;;;;;;;;;;5074215;28;20385;-73
2024/02/15 06:01:12;;;;;;;;;;;;;;;;;;5083504;28;20029;-72
2024/02/15 06:03:41;;;;;;;;;;;;;;;;;;5092078;28;19936;-71
2024/02/15 06:06:08;;;;;;;;;;;;;;;;;;5091914;28;19935;-71
2024/02/15 06:08:35;;;;;;;;;;;;;;;;;;5075878;28;20051;-72
2024/02/15 06:11:02;;;;;;;;;;;;;;;;;;5079711;28;20023;-72
2024/02/15 06:13:29;;;;;;;;;;;;;;;;;;5077996;28;19928;-73
2024/02/15 06:15:56;;;;;;;;;;;;;;;;;;5070567;28;19950;-73
2024/02/15 06:18:24;;;;;;;;;;;;;;;;;;5071651;28;19935;-72
2024/02/15 06:20:51;;;;;;;;;;;;;;;;;;5086540;28;19934;-71
2024/02/15 06:23:18;;;;;;;;;;;;;;;;;;5091498;28;20027;-72
2024/02/15 06:25:47;;;;;;;;;;;;;;;;;;5087246;28;19967;-72
2024/02/15 06:39:37;;;;;;;;;;;;;;;;;;5081477;28;19967;-72
2024/02/15 06:42:00;;;;;;;;;;;;;;;;;;5079896;28;19927;-72
2024/02/15 06:44:27;;;;;;;;;;;;;;;;;;5103052;28;20007;-71
2024/02/15 06:46:55;;;;;;;;;;;;;;;;;;5092836;28;19936;-72
2024/02/15 06:49:22;;;;;;;;;;;;;;;;;;5083019;28;20353;-69
2024/02/15 06:51:49;;;;;;;;;;;;;;;;;;5083920;28;20020;-71
2024/02/15 06:54:18;;;;;;;;;;;;;;;;;;5078548;28;20015;-72
2024/02/15 06:56:46;;;;;;;;;;;;;;;;;;5077871;28;20375;-71
2024/02/15 06:59:14;;;;;;;;;;;;;;;;;;5086453;28;20449;-71
2024/02/15 07:01:41;;;;;;;;;;;;;;;;;;5090407;28;20042;-71
2024/02/15 07:04:10;;;;;;;;;;;;;;;;;;5090434;28;19935;-72
2024/02/15 07:06:37;;;;;;;;;;;;;;;;;;5089334;28;19935;-71
2024/02/15 07:09:04;;;;;;;;;;;;;;;;;;5086018;28;19928;-73
2024/02/15 07:11:31;;;;;;;;;;;;;;;;;;5074030;28;19978;-72
2024/02/15 07:13:58;;;;;;;;;;;;;;;;;;5076335;28;20015;-71
2024/02/15 07:16:25;;;;;;;;;;;;;;;;;;5073207;28;20042;-72
2024/02/15 07:18:53;;;;;;;;;;;;;;;;;;5082288;28;19987;-72
2024/02/15 07:21:23;;;;;;;;;;;;;;;;;;5071676;28;19935;-72
2024/02/15 07:23:50;;;;;;;;;;;;;;;;;;5074168;28;20388;-72
2024/02/15 07:26:20;;;;;;;;;;;;;;;;;;5089300;28;19935;-70
2024/02/15 07:28:48;;;;;;;;;;;;;;;;;;5086325;28;20319;-68
2024/02/15 07:31:15;;;;;;;;;;;;;;;;;;5084115;28;20694;-69
2024/02/15 07:33:43;;;;;;;;;;;;;;;;;;5081436;28;20452;-68
2024/02/15 07:36:10;;;;;;;;;;;;;;;;;;5081005;28;20019;-67
2024/02/15 07:38:37;;;;;;;;;;;;;;;;;;5084982;28;19974;-68
2024/02/15 07:41:04;;;;;;;;;;;;;;;;;;5083109;28;20408;-66
2024/02/15 07:43:31;;;;;;;;;;;;;;;;;;5077154;28;19983;-67
2024/02/15 07:45:58;;;;;;;;;;;;;;;;;;5091176;28;19947;-68
2024/02/15 07:48:25;;;;;;;;;;;;;;;;;;5079241;28;20358;-68
2024/02/15 07:50:52;;;;;;;;;;;;;;;;;;5076612;28;20042;-67
2024/02/15 07:53:19;;;;;;;;;;;;;;;;;;5079633;28;19928;-68
2024/02/15 07:55:46;;;;;;;;;;;;;;;;;;5098954;28;19927;-67
2024/02/15 07:58:13;;;;;;;;;;;;;;;;;;5073709;28;20383;-68
2024/02/15 08:00:40;;;;;;;;;;;;;;;;;;5078541;28;19932;-68
2024/02/15 08:03:08;;;;;;;;;;;;;;;;;;5075483;28;19928;-68
2024/02/15 08:05:35;;;;;;;;;;;;;;;;;;5074804;28;19928;-67
2024/02/15 08:08:03;;;;;;;;;;;;;;;;;;5077739;28;20014;-68
2024/02/15 08:10:30;;;;;;;;;;;;;;;;;;5082159;28;19935;-68
2024/02/15 08:12:58;;;;;;;;;;;;;;;;;;5083835;28;19974;-68
2024/02/15 08:15:27;;;;;;;;;;;;;;;;;;5076025;28;19974;-68
2024/02/15 08:17:55;;;;;;;;;;;;;;;;;;5086595;28;20046;-67
2024/02/15 08:20:22;;;;;;;;;;;;;;;;;;5072438;28;20477;-68
2024/02/15 08:22:49;;;;;;;;;;;;;;;;;;5087354;28;19935;-68
2024/02/15 08:25:17;;;;;;;;;;;;;;;;;;5085969;28;20026;-68
2024/02/15 08:27:44;;;;;;;;;;;;;;;;;;5075218;28;19936;-68
2024/02/15 08:30:11;;;;;;;;;;;;;;;;;;5078795;28;20310;-69
2024/02/15 08:32:39;;;;;;;;;;;;;;;;;;5083283;28;19928;-67
2024/02/15 08:35:06;;;;;;;;;;;;;;;;;;5085811;28;20317;-69
2024/02/15 08:37:34;;;;;;;;;;;;;;;;;;5081367;28;19939;-68
2024/02/15 08:40:02;;;;;;;;;;;;;;;;;;5085507;28;19935;-68
2024/02/15 08:42:29;;;;;;;;;;;;;;;;;;5082121;28;20075;-67
2024/02/15 08:44:56;;;;;;;;;;;;;;;;;;5084191;28;20029;-68
2024/02/15 08:47:23;;;;;;;;;;;;;;;;;;5081025;28;20450;-68
2024/02/15 08:49:50;;;;;;;;;;;;;;;;;;5081919;28;20422;-69
2024/02/15 08:52:18;;;;;;;;;;;;;;;;;;5081051;28;19968;-69
2024/02/15 08:54:45;;;;;;;;;;;;;;;;;;5082599;28;19927;-69
2024/02/15 08:57:13;;;;;;;;;;;;;;;;;;5074149;28;20359;-69
2024/02/15 08:59:42;;;;;;;;;;;;;;;;;;5082229;28;19935;-67
2024/02/15 09:02:09;;;;;;;;;;;;;;;;;;5075412;28;20039;-66
2024/02/15 09:04:36;;;;;;;;;;;;;;;;;;5075237;28;19932;-69
2024/02/15 09:07:04;;;;;;;;;;;;;;;;;;5077546;28;19928;-68
2024/02/15 09:09:33;;;;;;;;;;;;;;;;;;5076331;28;19988;-69
2024/02/15 09:12:00;;;;;;;;;;;;;;;;;;5078890;28;20476;-68
2024/02/15 09:14:27;;;;;;;;;;;;;;;;;;5082364;28;20034;-69
2024/02/15 09:16:54;;;;;;;;;;;;;;;;;;5078668;28;19934;-70
2024/02/15 09:19:21;;;;;;;;;;;;;;;;;;5078448;28;19928;-67
2024/02/15 09:21:48;;;;;;;;;;;;;;;;;;5081209;28;20484;-68
2024/02/15 09:24:16;;;;;;;;;;;;;;;;;;5075317;28;19928;-68
2024/02/15 09:26:44;;;;;;;;;;;;;;;;;;5076005;28;19929;-67
2024/02/15 09:29:12;;;;;;;;;;;;;;;;;;5077058;28;19955;-68
2024/02/15 09:31:40;;;;;;;;;;;;;;;;;;5082529;28;20007;-68
2024/02/15 09:34:07;;;;;;;;;;;;;;;;;;5083328;28;19934;-68
2024/02/15 09:36:34;;;;;;;;;;;;;;;;;;5079183;28;19928;-68
2024/02/15 09:39:01;;;;;;;;;;;;;;;;;;5086896;28;19979;-70
2024/02/15 09:41:28;;;;;;;;;;;;;;;;;;5087723;28;20019;-71
2024/02/15 09:43:55;;;;;;;;;;;;;;;;;;5086373;28;19932;-70
2024/02/15 09:46:22;;;;;;;;;;;;;;;;;;5077402;28;20403;-70
2024/02/15 09:48:49;;;;;;;;;;;;;;;;;;5084378;28;20022;-70
2024/02/15 09:51:16;;;;;;;;;;;;;;;;;;5083457;28;19928;-69
2024/02/15 09:53:43;;;;;;;;;;;;;;;;;;5082017;28;19941;-70
2024/02/15 09:56:10;;;;;;;;;;;;;;;;;;5082806;28;20022;-70
2024/02/15 09:58:38;;;;;;;;;;;;;;;;;;5082094;28;19929;-69
2024/02/15 10:01:06;;;;;;;;;;;;;;;;;;5083794;28;19932;-69
2024/02/15 10:03:33;;;;;;;;;;;;;;;;;;5086323;28;20360;-71
2024/02/15 10:06:00;;;;;;;;;;;;;;;;;;5086156;28;20015;-68
2024/02/15 10:08:27;;;;;;;;;;;;;;;;;;5074689;28;19929;-69
2024/02/15 10:10:54;;;;;;;;;;;;;;;;;;5079695;28;19928;-69
2024/02/15 10:13:21;;;;;;;;;;;;;;;;;;5077001;28;20334;-69
2024/02/15 10:15:48;;;;;;;;;;;;;;;;;;5074131;28;19929;-68
2024/02/15 10:18:15;;;;;;;;;;;;;;;;;;5082089;28;19935;-70
2024/02/15 10:20:44;;;;;;;;;;;;;;;;;;5088964;28;19927;-70
2024/02/15 10:23:11;;;;;;;;;;;;;;;;;;5080901;28;20035;-70
2024/02/15 10:25:38;;;;;;;;;;;;;;;;;;5090961;28;20405;-70
2024/02/15 10:28:06;;;;;;;;;;;;;;;;;;5080185;28;19932;-70
2024/02/15 10:30:33;;;;;;;;;;;;;;;;;;5089499;28;19944;-69
2024/02/15 10:33:00;;;;;;;;;;;;;;;;;;5085615;28;20458;-69
2024/02/15 10:35:27;;;;;;;;;;;;;;;;;;5085567;28;19928;-69
2024/02/15 10:37:54;;;;;;;;;;;;;;;;;;5077830;28;19934;-68
2024/02/15 10:40:21;;;;;;;;;;;;;;;;;;5070347;28;20030;-69
2024/02/15 10:42:49;;;;;;;;;;;;;;;;;;5076952;28;19989;-69
2024/02/15 10:45:17;;;;;;;;;;;;;;;;;;5085928;28;20417;-69
2024/02/15 10:47:47;;;;;;;;;;;;;;;;;;5088021;28;19959;-69
2024/02/15 10:50:15;;;;;;;;;;;;;;;;;;5080889;28;20298;-69
2024/02/15 10:52:42;;;;;;;;;;;;;;;;;;5073933;28;19996;-68
2024/02/15 10:55:13;;;;;;;;;;;;;;;;;;5075184;28;19967;-70
2024/02/15 10:57:40;;;;;;;;;;;;;;;;;;5078557;28;20441;-68
2024/02/15 11:00:10;;;;;;;;;;;;;;;;;;5071537;28;19928;-71
2024/02/15 11:02:37;;;;;;;;;;;;;;;;;;5077857;28;19928;-70
2024/02/15 11:05:04;;;;;;;;;;;;;;;;;;5083661;28;19928;-70
2024/02/15 11:07:31;;;;;;;;;;;;;;;;;;5082255;28;19928;-71
2024/02/15 11:09:58;;;;;;;;;;;;;;;;;;5087032;28;19975;-71
2024/02/15 11:12:26;;;;;;;;;;;;;;;;;;5081626;28;19946;-72
2024/02/15 11:14:54;;;;;;;;;;;;;;;;;;5086959;28;20417;-73
2024/02/15 11:17:21;;;;;;;;;;;;;;;;;;5082119;28;20318;-70
2024/02/15 11:19:48;;;;;;;;;;;;;;;;;;5086923;28;19971;-70
2024/02/15 11:22:15;;;;;;;;;;;;;;;;;;5075283;28;20352;-71
2024/02/15 11:24:42;;;;;;;;;;;;;;;;;;5086416;28;19958;-71
2024/02/15 11:27:13;;;;;;;;;;;;;;;;;;5082758;28;19927;-71
2024/02/15 11:29:40;;;;;;;;;;;;;;;;;;5082317;28;20038;-71
2024/02/15 11:32:08;;;;;;;;;;;;;;;;;;5080467;28;20290;-71
2024/02/15 11:34:34;;;;;;;;;;;;;;;;;;5070399;28;19928;-71
2024/02/15 11:37:01;;;;;;;;;;;;;;;;;;5075619;28;20437;-71
2024/02/15 11:39:29;;;;;;;;;;;;;;;;;;5075558;28;19935;-72
2024/02/15 11:41:56;;;;;;;;;;;;;;;;;;5084446;28;19932;-72
2024/02/15 11:44:25;;;;;;;;;;;;;;;;;;5080597;28;19931;-71
2024/02/15 11:46:53;;;;;;;;;;;;;;;;;;5075911;28;19934;-71
2024/02/15 11:49:20;;;;;;;;;;;;;;;;;;5082757;28;20311;-72
2024/02/15 11:51:47;;;;;;;;;;;;;;;;;;5083210;28;20018;-72
2024/02/15 11:54:15;;;;;;;;;;;;;;;;;;5078823;28;19939;-72
2024/02/15 11:56:41;;;;;;;;;;;;;;;;;;5080589;28;19928;-71
2024/02/15 11:59:08;;;;;;;;;;;;;;;;;;5074861;28;20378;-71
2024/02/15 12:21:05;;;;;;;;;;;;;;;;;;5030602;28;19927;-71
2024/02/15 12:23:33;;;;;;;;;;;;;;;;;;5033369;28;20023;-71
2024/02/15 12:26:01;;;;;;;;;;;;;;;;;;5038168;28;19932;-71
2024/02/15 12:28:28;;;;;;;;;;;;;;;;;;5037079;28;20498;-71
2024/02/15 12:30:55;;;;;;;;;;;;;;;;;;5043368;28;19932;-73
2024/02/15 12:33:22;;;;;;;;;;;;;;;;;;5051060;28;19929;-71
2024/02/15 12:35:50;;;;;;;;;;;;;;;;;;5039503;28;20015;-72
2024/02/15 12:38:17;;;;;;;;;;;;;;;;;;5046482;28;19935;-71
2024/02/15 12:40:46;;;;;;;;;;;;;;;;;;5031759;28;20392;-71
2024/02/15 12:43:14;;;;;;;;;;;;;;;;;;5051086;28;20395;-71
2024/02/15 12:45:42;;;;;;;;;;;;;;;;;;5035145;28;19932;-71
2024/02/15 12:48:09;;;;;;;;;;;;;;;;;;5076606;28;20020;-70
2024/02/15 12:50:36;;;;;;;;;;;;;;;;;;5076058;28;19959;-72
2024/02/15 12:53:03;;;;;;;;;;;;;;;;;;5080331;28;20750;-72
2024/02/15 12:55:34;;;;;;;;;;;;;;;;;;5082422;28;19932;-72
2024/02/15 12:58:03;;;;;;;;;;;;;;;;;;5071187;28;19956;-72
2024/02/15 13:00:31;;;;;;;;;;;;;;;;;;5078776;28;19985;-71
2024/02/15 13:02:58;;;;;;;;;;;;;;;;;;5076304;28;20048;-72
2024/02/15 13:05:26;;;;;;;;;;;;;;;;;;5073719;28;20440;-75
2024/02/15 13:07:54;;;;;;;;;;;;;;;;;;5073565;28;19935;-74
2024/02/15 13:10:21;;;;;;;;;;;;;;;;;;5079918;28;19928;-73
2024/02/15 13:12:48;;;;;;;;;;;;;;;;;;5082270;28;20205;-73
2024/02/15 13:15:17;;;;;;;;;;;;;;;;;;5078703;28;19928;-73
2024/02/15 13:17:45;;;;;;;;;;;;;;;;;;5078227;28;20644;-73
2024/02/15 13:20:13;;;;;;;;;;;;;;;;;;5068951;28;19934;-73
2024/02/15 13:22:41;;;;;;;;;;;;;;;;;;5085022;28;19928;-73
2024/02/15 13:25:08;;;;;;;;;;;;;;;;;;5251615;22;20395;-72
2024/02/15 13:27:36;;;;;;;;;;;;;;;;;;5069749;28;19928;-72
2024/02/15 13:30:03;;;;;;;;;;;;;;;;;;5062136;28;19928;-73
2024/02/15 13:32:30;;;;;;;;;;;;;;;;;;5066640;28;20026;-73
2024/02/15 13:34:59;;;;;;;;;;;;;;;;;;5066157;28;19987;-71
2024/02/15 13:37:26;;;;;;;;;;;;;;;;;;5055383;28;19933;-69
2024/02/15 13:39:53;;;;;;;;;;;;;;;;;;5052464;28;20475;-70
2024/02/15 13:42:20;;;;;;;;;;;;;;;;;;5051699;28;20030;-72
2024/02/15 13:44:48;;;;;;;;;;;;;;;;;;5048506;28;19929;-70
2024/02/15 13:47:16;;;;;;;;;;;;;;;;;;5050324;28;19944;-72
2024/02/15 13:49:43;;;;;;;;;;;;;;;;;;5049335;28;20453;-72
2024/02/15 13:52:11;;;;;;;;;;;;;;;;;;5045825;28;20385;-72
2024/02/15 13:54:38;;;;;;;;;;;;;;;;;;5045783;28;19982;-72
2024/02/15 13:57:06;;;;;;;;;;;;;;;;;;5041637;28;19929;-72
2024/02/15 13:59:34;;;;;;;;;;;;;;;;;;5035537;28;20007;-72
2024/02/15 14:02:03;;;;;;;;;;;;;;;;;;5044297;28;20023;-72
2024/02/15 14:04:32;;;;;;;;;;;;;;;;;;5049374;28;20274;-72
2024/02/15 14:06:59;;;;;;;;;;;;;;;;;;5042268;28;19932;-72
2024/02/15 14:09:26;;;;;;;;;;;;;;;;;;5049958;28;20007;-72
2024/02/15 14:11:53;;;;;;;;;;;;;;;;;;5045460;28;20019;-71
2024/02/15 14:14:20;;;;;;;;;;;;;;;;;;5040635;28;19978;-72
2024/02/15 14:16:47;;;;;;;;;;;;;;;;;;5038469;28;19929;-72
2024/02/15 14:19:14;;;;;;;;;;;;;;;;;;5044484;28;20011;-71
2024/02/15 14:21:44;;;;;;;;;;;;;;;;;;5049446;28;19929;-73
2024/02/15 14:24:11;;;;;;;;;;;;;;;;;;5047551;28;19928;-72
2024/02/15 14:26:38;;;;;;;;;;;;;;;;;;5058134;28;20344;-72
2024/02/15 14:29:05;;;;;;;;;;;;;;;;;;5051752;28;19928;-71
2024/02/15 14:34:20;;;;;;;;;;;;;;;;;;5046331;28;19940;-72
2024/02/15 14:36:47;;;;;;;;;;;;;;;;;;5036877;28;19929;-71
2024/02/15 14:39:14;;;;;;;;;;;;;;;;;;5026326;28;19939;-72
2024/02/15 14:41:42;;;;;;;;;;;;;;;;;;5026375;28;20114;-71
2024/02/15 14:44:09;;;;;;;;;;;;;;;;;;5042130;28;19940;-71
2024/02/15 14:46:36;;;;;;;;;;;;;;;;;;5048939;28;19928;-71
2024/02/15 14:49:04;;;;;;;;;;;;;;;;;;5040820;28;19933;-72
2024/02/15 14:51:32;;;;;;;;;;;;;;;;;;5045938;28;20374;-72
2024/02/15 14:53:59;;;;;;;;;;;;;;;;;;5034828;28;20031;-72
2024/02/15 14:56:26;;;;;;;;;;;;;;;;;;5031363;28;20043;-72
2024/02/15 14:58:54;;;;;;;;;;;;;;;;;;5045164;28;19999;-73
2024/02/15 15:01:21;;;;;;;;;;;;;;;;;;5032269;28;19929;-72
2024/02/15 15:03:48;;;;;;;;;;;;;;;;;;5039588;28;20039;-72
2024/02/15 15:14:30;;;;;;;;;;;;;;;;;;5044695;28;19927;-73
2024/02/15 15:16:57;;;;;;;;;;;;;;;;;;5048143;28;20332;-73
2024/02/15 15:19:25;;;;;;;;;;;;;;;;;;5046490;28;20054;-73
2024/02/15 15:21:52;;;;;;;;;;;;;;;;;;5046751;28;19928;-72
2024/02/15 15:24:19;;;;;;;;;;;;;;;;;;5048405;28;20384;-71
2024/02/15 15:26:46;;;;;;;;;;;;;;;;;;5032562;28;20040;-74
2024/02/15 15:29:14;;;;;;;;;;;;;;;;;;5039380;28;20473;-71
2024/02/15 15:31:41;;;;;;;;;;;;;;;;;;5050022;28;19928;-72
2024/02/15 15:34:09;;;;;;;;;;;;;;;;;;5048819;28;19935;-71
2024/02/15 15:36:36;;;;;;;;;;;;;;;;;;5048845;28;19929;-72
2024/02/15 15:39:08;;;;;;;;;;;;;;;;;;5048985;28;19939;-72
2024/02/15 15:41:35;;;;;;;;;;;;;;;;;;5044409;28;20015;-72
2024/02/15 15:44:02;;;;;;;;;;;;;;;;;;5047620;28;19928;-72
2024/02/15 15:46:29;;;;;;;;;;;;;;;;;;5048107;28;20437;-71
2024/02/15 15:48:56;;;;;;;;;;;;;;;;;;5048174;28;19928;-72
2024/02/15 15:51:23;;;;;;;;;;;;;;;;;;5047903;28;20018;-71
2024/02/15 15:53:51;;;;;;;;;;;;;;;;;;5047791;28;20047;-72
2024/02/15 15:56:18;;;;;;;;;;;;;;;;;;5042973;28;20047;-71
2024/02/15 15:58:47;;;;;;;;;;;;;;;;;;5052132;28;19956;-71
2024/02/15 16:01:14;;;;;;;;;;;;;;;;;;5046307;28;19967;-72
2024/02/15 16:03:41;;;;;;;;;;;;;;;;;;5042083;28;20023;-72
2024/02/15 16:06:08;;;;;;;;;;;;;;;;;;5047386;28;19990;-74
2024/02/15 16:08:36;;;;;;;;;;;;;;;;;;5047261;28;19951;-74
2024/02/15 16:11:06;;;;;;;;;;;;;;;;;;5045368;28;20013;-72
2024/02/15 16:13:34;;;;;;;;;;;;;;;;;;5030614;28;19925;-71
2024/02/15 16:16:03;;;;;;;;;;;;;;;;;;5045473;28;19936;-72
2024/02/15 16:18:30;;;;;;;;;;;;;;;;;;5046999;28;19928;-72
2024/02/15 16:20:58;;;;;;;;;;;;;;;;;;5045338;28;19928;-73
2024/02/15 16:23:25;;;;;;;;;;;;;;;;;;5044802;28;19928;-72
2024/02/15 16:25:52;;;;;;;;;;;;;;;;;;5045281;28;20378;-73
2024/02/15 16:28:19;;;;;;;;;;;;;;;;;;5045233;28;19932;-72
2024/02/15 16:30:46;;;;;;;;;;;;;;;;;;5047938;28;20323;-72
2024/02/15 16:33:13;;;;;;;;;;;;;;;;;;5044790;28;19952;-71
2024/02/15 16:35:40;;;;;;;;;;;;;;;;;;5047989;28;20015;-72
2024/02/15 16:38:08;;;;;;;;;;;;;;;;;;5048380;28;19965;-72
2024/02/15 16:40:35;;;;;;;;;;;;;;;;;;5048547;28;20005;-72
2024/02/15 16:43:04;;;;;;;;;;;;;;;;;;5046311;28;20019;-71
2024/02/15 16:45:33;;;;;;;;;;;;;;;;;;5043963;28;19929;-72
2024/02/15 16:48:02;;;;;;;;;;;;;;;;;;5048018;28;19956;-71
2024/02/15 16:50:29;;;;;;;;;;;;;;;;;;5047290;28;19924;-73
2024/02/15 16:52:56;;;;;;;;;;;;;;;;;;5047853;28;20044;-71
2024/02/15 16:55:28;;;;;;;;;;;;;;;;;;5044910;28;19929;-71
2024/02/15 16:58:00;;;;;;;;;;;;;;;;;;5049479;28;19990;-71
2024/02/15 17:00:28;;;;;;;;;;;;;;;;;;5052207;28;20027;-71
2024/02/15 17:02:55;;;;;;;;;;;;;;;;;;5051302;28;19929;-70
2024/02/15 17:05:23;;;;;;;;;;;;;;;;;;5051884;28;20011;-69
2024/02/15 17:07:50;;;;;;;;;;;;;;;;;;5051713;28;19982;-69
2024/02/15 17:10:18;;;;;;;;;;;;;;;;;;5052562;28;20380;-69
2024/02/15 17:12:45;;;;;;;;;;;;;;;;;;5049768;28;19932;-69
2024/02/15 17:15:12;;;;;;;;;;;;;;;;;;5048700;28;20400;-70
2024/02/15 17:17:39;;;;;;;;;;;;;;;;;;5055151;28;19936;-70
2024/02/15 17:20:14;;;;;;;;;;;;;;;;;;5037625;28;19936;-70
2024/02/15 17:22:41;;;;;;;;;;;;;;;;;;5049294;28;19933;-71
2024/02/15 17:25:10;;;;;;;;;;;;;;;;;;5043156;28;19987;-70
2024/02/15 17:27:38;;;;;;;;;;;;;;;;;;5050329;28;19929;-71
2024/02/15 17:30:08;;;;;;;;;;;;;;;;;;5054731;28;19935;-70